Time;durP1;ratioP1;P1;durP2;ratioP2;P2;SDS_P1;SDS_P2;PMS_P1;PMS_P2;Temp;Humidity;BMP_temperature;BMP_pressure;BME280_temperature;BME280_humidity;BME280_pressure;Samples;Min_cycle;Max_cycle;Signal;HPM_P1;HPM_P2
2022/12/19 00:02:08;;;;;;;136.65;59.45;;;;;;;-2.67;99.23;102777.66;5073132;28;20132;-73
2022/12/19 00:04:34;;;;;;;139.50;58.78;;;;;;;-2.68;100.00;102768.03;5072996;28;20529;-72
2022/12/19 00:07:00;;;;;;;139.20;60.22;;;;;;;-2.65;99.66;102775.94;5072040;28;20067;-73
2022/12/19 00:09:26;;;;;;;133.27;60.13;;;;;;;-2.63;100.00;102789.06;5072636;28;20078;-72
2022/12/19 00:11:51;;;;;;;152.35;61.35;;;;;;;-2.63;100.00;102789.97;5071399;28;20028;-73
2022/12/19 00:14:17;;;;;;;142.77;60.47;;;;;;;-2.65;100.00;102788.19;5072679;28;20039;-74
2022/12/19 00:16:42;;;;;;;141.48;58.90;;;;;;;-2.78;100.00;102762.72;5071162;28;20028;-73
2022/12/19 00:19:10;;;;;;;152.35;64.80;;;;;;;-2.65;100.00;102796.94;5072541;28;20433;-73
2022/12/19 00:21:35;;;;;;;144.35;62.15;;;;;;;-2.64;99.78;102803.09;5072426;28;20021;-73
2022/12/19 00:24:06;;;;;;;149.30;61.60;;;;;;;-2.66;100.00;102795.19;5072284;28;20020;-74
2022/12/19 00:26:33;;;;;;;160.27;67.25;;;;;;;-2.65;99.81;102812.72;5072502;28;20070;-73
2022/12/19 00:29:01;;;;;;;161.05;68.40;;;;;;;-2.96;100.00;102746.88;5072470;28;20082;-72
2022/12/19 00:31:28;;;;;;;168.98;70.05;;;;;;;-2.65;100.00;102796.94;5072309;28;20016;-73
2022/12/19 00:33:54;;;;;;;155.13;67.68;;;;;;;-2.69;100.00;102778.53;5072068;28;20424;-71
2022/12/19 00:36:26;;;;;;;159.80;66.15;;;;;;;-2.59;100.00;102810.13;5072115;28;20090;-72
2022/12/19 00:38:53;;;;;;;152.98;66.80;;;;;;;-2.67;100.00;102793.41;5072241;28;20020;-73
2022/12/19 00:41:22;;;;;;;166.95;68.15;;;;;;;-2.62;100.00;102801.31;5071727;28;20404;-73
2022/12/19 00:43:55;;;;;;;158.63;64.20;;;;;;;-2.65;100.00;102798.69;5071723;28;20028;-74
2022/12/19 00:46:21;;;;;;;142.88;60.85;;;;;;;-2.58;100.00;102803.97;5071766;28;20044;-73
2022/12/19 00:48:46;;;;;;;158.25;63.95;;;;;;;-2.62;100.00;102803.94;5072174;28;20059;-72
2022/12/19 00:51:14;;;;;;;146.13;62.10;;;;;;;-2.61;100.00;102803.09;5071933;28;20106;-73
2022/12/19 00:53:40;;;;;;;152.90;63.00;;;;;;;-2.85;100.00;102772.31;5071748;28;20029;-73
2022/12/19 00:56:10;;;;;;;144.23;60.08;;;;;;;-2.68;100.00;102798.66;5071847;28;20024;-73
2022/12/19 00:58:35;;;;;;;134.18;58.03;;;;;;;-2.66;100.00;102794.31;5071927;28;20033;-73
2022/12/19 01:01:09;;;;;;;143.48;59.85;;;;;;;-2.85;100.00;102766.19;5071649;28;20031;-73
2022/12/19 01:03:35;;;;;;;136.52;58.15;;;;;;;-2.87;100.00;102765.31;5071583;28;20032;-73
2022/12/19 01:06:00;;;;;;;140.07;57.97;;;;;;;-2.74;100.00;102783.75;5071594;28;20507;-72
2022/12/19 01:08:26;;;;;;;128.63;57.80;;;;;;;-2.67;100.00;102805.69;5071323;28;20483;-72
2022/12/19 01:10:51;;;;;;;139.82;58.65;;;;;;;-2.68;100.00;102799.56;5071475;28;20040;-72
2022/12/19 01:13:19;;;;;;;138.07;59.53;;;;;;;-2.67;100.00;102788.16;5071434;28;20416;-73
2022/12/19 01:15:45;;;;;;;142.07;58.40;;;;;;;-2.67;100.00;102790.78;5071361;28;20020;-73
2022/12/19 01:18:11;;;;;;;135.40;59.05;;;;;;;-2.82;100.00;102761.84;5071064;28;20066;-73
2022/12/19 01:20:41;;;;;;;138.25;59.03;;;;;;;-2.69;100.00;102781.16;5071237;28;20025;-73
2022/12/19 01:23:08;;;;;;;140.25;58.30;;;;;;;-2.71;100.00;102773.28;5070572;28;20133;-70
2022/12/19 01:25:36;;;;;;;145.38;61.15;;;;;;;-2.73;100.00;102775.03;5070306;28;20033;-69
2022/12/19 01:28:02;;;;;;;137.60;59.42;;;;;;;-2.83;100.00;102748.72;5068717;28;20067;-70
2022/12/19 01:30:28;;;;;;;146.85;60.67;;;;;;;-2.78;100.00;102755.72;5070606;28;20461;-70
2022/12/19 01:32:55;;;;;;;138.63;58.30;;;;;;;-2.74;100.00;102757.50;5070245;28;20028;-70
2022/12/19 01:35:20;;;;;;;145.80;60.53;;;;;;;-2.70;100.00;102763.66;5070290;28;20036;-69
2022/12/19 01:37:46;;;;;;;133.77;56.85;;;;;;;-2.87;100.00;102732.03;5070033;28;20040;-69
2022/12/19 01:40:12;;;;;;;136.13;59.58;;;;;;;-2.75;100.00;102763.63;5070313;28;20094;-69
2022/12/19 01:42:38;;;;;;;141.35;61.22;;;;;;;-2.74;100.00;102761.91;5070141;28;20029;-69
2022/12/19 01:45:09;;;;;;;137.68;60.33;;;;;;;-2.69;100.00;102755.78;5069955;28;20044;-70
2022/12/19 01:47:46;;;;;;;138.40;60.03;;;;;;;-2.68;100.00;102754.00;5069864;28;20101;-68
2022/12/19 01:50:16;;;;;;;129.57;57.30;;;;;;;-2.67;100.00;102756.66;5070080;28;20103;-70
2022/12/19 01:52:42;;;;;;;128.02;57.35;;;;;;;-2.92;100.00;102710.16;5069721;28;20507;-69
2022/12/19 01:55:09;;;;;;;153.13;61.17;;;;;;;-2.67;100.00;102742.66;5069821;28;20032;-70
2022/12/19 01:57:36;;;;;;;136.00;56.92;;;;;;;-2.63;100.00;102742.69;5069810;28;20373;-70
2022/12/19 02:00:03;;;;;;;124.30;56.13;;;;;;;-2.68;100.00;102727.75;5069744;28;20484;-70
2022/12/19 02:02:31;;;;;;;129.27;53.67;;;;;;;-2.54;100.00;102747.97;5069741;28;20032;-68
2022/12/19 02:04:57;;;;;;;121.63;52.53;;;;;;;-2.56;100.00;102733.06;5068593;28;20089;-69
2022/12/19 02:07:25;;;;;;;125.93;54.88;;;;;;;-2.66;100.00;102712.91;5069758;28;20115;-70
2022/12/19 02:09:53;;;;;;;127.47;54.50;;;;;;;-2.52;100.00;102738.34;5069698;28;20025;-70
2022/12/19 02:12:19;;;;;;;130.07;53.47;;;;;;;-2.50;100.00;102736.63;5069406;28;20097;-69
2022/12/19 02:14:45;;;;;;;120.90;53.13;;;;;;;-2.46;100.00;102737.47;5068605;28;20036;-69
2022/12/19 02:17:21;;;;;;;117.88;52.30;;;;;;;-2.50;100.00;102726.09;5068721;28;20526;-69
2022/12/19 02:20:15;;;;;;;118.80;50.45;;;;;;;-2.49;100.00;102724.34;5065515;28;20036;-69
2022/12/19 02:23:14;;;;;;;113.53;52.85;;;;;;;-2.44;100.00;102717.38;5066672;28;20465;-70
2022/12/19 02:26:15;;;;;;;116.93;48.53;;;;;;;-2.46;100.00;102719.97;5068046;28;20078;-70
2022/12/19 02:28:58;;;;;;;108.60;47.38;;;;;;;-2.45;100.00;102716.47;5067768;28;20032;-73
2022/12/19 02:31:29;;;;;;;109.45;48.08;;;;;;;-2.41;100.00;102706.88;5072791;28;20028;-74
2022/12/19 02:34:25;;;;;;;118.45;47.50;;;;;;;-2.44;100.00;102707.75;5071173;28;20119;-73
2022/12/19 02:36:56;;;;;;;115.20;47.83;;;;;;;-2.43;100.00;102703.34;5070464;28;20040;-73
2022/12/19 02:39:26;;;;;;;115.68;48.13;;;;;;;-2.41;100.00;102712.13;5071578;28;20274;-73
2022/12/19 02:41:56;;;;;;;108.38;47.83;;;;;;;-2.48;100.00;102705.94;5069236;28;20405;-73
2022/12/19 02:44:32;;;;;;;112.75;47.08;;;;;;;-2.40;100.00;102706.88;5071937;28;20028;-72
2022/12/19 02:47:01;;;;;;;115.97;46.50;;;;;;;-2.44;100.00;102696.34;5069580;28;20497;-72
2022/12/19 02:49:32;;;;;;;97.00;44.88;;;;;;;-2.41;100.00;102691.09;5072216;28;20013;-73
2022/12/19 02:52:08;;;;;;;106.53;45.00;;;;;;;-2.17;100.00;102709.53;5072072;28;20088;-73
2022/12/19 02:54:33;;;;;;;104.60;46.40;;;;;;;-2.10;100.00;102697.31;5066735;28;20542;-74
2022/12/19 02:57:28;;;;;;;105.53;45.90;;;;;;;-2.03;100.00;102704.31;5073856;28;20024;-73
2022/12/19 03:00:03;;;;;;;106.03;43.13;;;;;;;-1.92;100.00;102699.94;5073971;28;20518;-73
2022/12/19 03:02:50;;;;;;;99.78;44.78;;;;;;;-1.77;100.00;102697.34;5072765;28;20074;-72
2022/12/19 03:05:27;;;;;;;111.28;45.95;;;;;;;-1.80;100.00;102700.84;5072639;28;20491;-72
2022/12/19 03:08:13;;;;;;;108.88;44.30;;;;;;;-1.80;100.00;102706.09;5073729;28;20516;-72
2022/12/19 03:10:44;;;;;;;100.30;42.17;;;;;;;-1.89;100.00;102676.28;5072486;28;20435;-73
2022/12/19 03:13:15;;;;;;;109.53;45.92;;;;;;;-1.72;100.00;102712.22;5074047;28;20380;-73
2022/12/19 03:15:42;;;;;;;102.40;46.42;;;;;;;-1.67;100.00;102712.25;5074345;28;20063;-73
2022/12/19 03:18:09;;;;;;;106.05;44.72;;;;;;;-1.67;100.00;102714.88;5073631;28;20074;-72
2022/12/19 03:20:34;;;;;;;91.50;41.65;;;;;;;-1.63;100.00;102711.34;5072013;28;20075;-73
2022/12/19 03:22:59;;;;;;;98.38;40.78;;;;;;;-1.76;100.00;102697.34;5073410;28;20056;-72
2022/12/19 03:25:27;;;;;;;91.78;41.20;;;;;;;-1.63;100.00;102729.78;5073297;28;20078;-72
2022/12/19 03:27:55;;;;;;;97.38;41.58;;;;;;;-1.77;100.00;102707.84;5073089;28;20025;-71
2022/12/19 03:30:21;;;;;;;91.20;41.90;;;;;;;-1.60;100.00;102748.19;5073131;28;20484;-72
2022/12/19 03:32:48;;;;;;;103.07;45.70;;;;;;;-1.69;100.00;102741.16;5072077;28;20035;-72
2022/12/19 03:35:19;;;;;;;101.88;43.67;;;;;;;-1.82;100.00;102726.25;5073222;28;20077;-72
2022/12/19 03:37:48;;;;;;;104.13;44.00;;;;;;;-1.74;100.00;102739.41;5073294;28;20044;-73
2022/12/19 03:40:18;;;;;;;92.18;43.42;;;;;;;-1.79;100.00;102751.69;5072929;28;20113;-72
2022/12/19 03:46:12;;;;;;;101.80;43.60;;;;;;;-1.90;100.00;102738.53;5073162;28;20038;-73
2022/12/19 03:48:45;;;;;;;107.90;45.20;;;;;;;-1.96;100.00;102721.84;5063801;28;20045;-73
2022/12/19 03:51:28;;;;;;;104.47;45.75;;;;;;;-1.99;100.00;102721.84;5072816;28;20122;-73
2022/12/19 03:54:25;;;;;;;99.25;44.13;;;;;;;-2.26;100.00;102690.25;5072372;28;20024;-73
2022/12/19 03:57:00;;;;;;;102.47;44.70;;;;;;;-2.11;100.00;102719.19;5064566;28;20028;-72
2022/12/19 03:59:26;;;;;;;96.63;42.88;;;;;;;-2.14;100.00;102716.56;5072844;28;20059;-72
2022/12/19 04:01:52;;;;;;;97.63;41.65;;;;;;;-2.35;100.00;102684.09;5072342;28;20097;-72
2022/12/19 04:04:20;;;;;;;103.95;44.15;;;;;;;-2.36;100.00;102687.59;5071261;28;20036;-72
2022/12/19 04:06:48;;;;;;;100.07;44.65;;;;;;;-2.25;100.00;102699.88;5071573;28;20393;-73
2022/12/19 04:09:15;;;;;;;111.35;46.88;;;;;;;-2.10;100.00;102718.34;5070974;28;20520;-73
2022/12/19 04:11:50;;;;;;;103.10;44.28;;;;;;;-2.06;100.00;102726.25;5070989;28;20429;-70
2022/12/19 04:14:22;;;;;;;106.63;45.35;;;;;;;-2.04;100.00;102734.13;5070478;28;20028;-70
2022/12/19 04:16:51;;;;;;;101.68;44.38;;;;;;;-2.03;100.00;102734.13;5071015;28;20044;-70
2022/12/19 04:19:24;;;;;;;99.25;43.05;;;;;;;-2.01;100.00;102735.00;5070542;28;20028;-69
2022/12/19 04:21:58;;;;;;;104.68;43.90;;;;;;;-2.07;100.00;102720.97;5070555;28;20400;-70
2022/12/19 04:24:33;;;;;;;103.50;45.03;;;;;;;-2.09;100.00;102726.22;5069011;28;20035;-70
2022/12/19 04:27:02;;;;;;;114.38;45.83;;;;;;;-1.94;100.00;102747.28;5070763;28;20028;-73
2022/12/19 04:29:32;;;;;;;103.20;45.38;;;;;;;-2.04;100.00;102734.13;5070987;28;20036;-72
2022/12/19 04:31:57;;;;;;;113.40;45.28;;;;;;;-2.06;100.00;102722.72;5070467;28;20106;-72
2022/12/19 04:34:23;;;;;;;113.95;47.72;;;;;;;-1.85;100.00;102749.03;5071765;28;20107;-72
2022/12/19 04:36:49;;;;;;;107.13;45.38;;;;;;;-1.94;100.00;102738.53;5071943;28;20045;-73
2022/12/19 04:39:15;;;;;;;110.20;47.85;;;;;;;-1.82;100.00;102752.56;5071803;28;20036;-73
2022/12/19 04:41:40;;;;;;;115.35;46.10;;;;;;;-1.76;100.00;102752.56;5070782;28;20021;-72
2022/12/19 04:44:06;;;;;;;120.97;49.28;;;;;;;-1.74;100.00;102728.91;5072005;28;20020;-73
2022/12/19 04:46:32;;;;;;;115.00;47.05;;;;;;;-1.89;100.00;102710.47;5072008;28;20099;-73
2022/12/19 04:48:58;;;;;;;110.85;46.45;;;;;;;-1.61;100.00;102742.03;5071895;28;20136;-73
2022/12/19 04:51:23;;;;;;;118.63;48.55;;;;;;;-1.53;100.00;102742.94;5071833;28;20031;-73
2022/12/19 04:53:49;;;;;;;116.97;45.38;;;;;;;-1.52;100.00;102738.56;5070531;28;20033;-74
2022/12/19 04:56:14;;;;;;;115.65;45.92;;;;;;;-1.66;100.00;102713.97;5070570;28;20077;-74
2022/12/19 04:58:39;;;;;;;114.47;45.88;;;;;;;-1.53;100.00;102734.16;5071527;28;20491;-72
2022/12/19 05:01:07;;;;;;;114.07;46.08;;;;;;;-1.53;100.00;102735.03;5071678;28;20028;-73
2022/12/19 05:03:33;;;;;;;127.72;49.05;;;;;;;-1.49;100.00;102733.31;5070660;28;20043;-73
2022/12/19 05:06:07;;;;;;;119.57;48.40;;;;;;;-1.47;100.00;102731.53;5071685;28;20038;-72
2022/12/19 05:08:34;;;;;;;115.65;45.28;;;;;;;-1.47;100.00;102731.53;5071589;28;20401;-73
2022/12/19 05:11:03;;;;;;;111.80;45.15;;;;;;;-1.54;100.00;102727.16;5070386;28;20024;-73
2022/12/19 05:13:29;;;;;;;112.10;43.47;;;;;;;-1.65;100.00;102694.72;5071167;28;20090;-72
2022/12/19 05:15:56;;;;;;;119.28;46.45;;;;;;;-1.56;100.00;102705.22;5071187;28;20025;-74
2022/12/19 05:18:22;;;;;;;113.82;44.50;;;;;;;-1.45;100.00;102737.69;5071349;28;20056;-73
2022/12/19 05:20:48;;;;;;;122.32;46.10;;;;;;;-1.49;100.00;102720.16;5071602;28;20068;-73
2022/12/19 05:23:13;;;;;;;110.78;42.17;;;;;;;-1.45;100.00;102722.75;5071120;28;20094;-72
2022/12/19 05:25:39;;;;;;;113.10;41.55;;;;;;;-1.46;100.00;102735.91;5069732;28;20414;-70
2022/12/19 05:28:04;;;;;;;99.57;39.58;;;;;;;-1.36;100.00;102737.69;5070147;28;20410;-70
2022/12/19 05:30:30;;;;;;;103.30;39.97;;;;;;;-1.70;100.00;102691.19;5068650;28;20031;-69
2022/12/19 05:32:55;;;;;;;97.53;39.35;;;;;;;-1.47;100.00;102724.53;5069011;28;20057;-70
2022/12/19 05:35:21;;;;;;;99.90;39.75;;;;;;;-1.54;100.00;102729.78;5067804;28;20500;-70
2022/12/19 05:37:46;;;;;;;91.95;38.40;;;;;;;-1.63;100.00;102711.34;5069116;28;20063;-70
2022/12/19 05:40:12;;;;;;;93.55;37.53;;;;;;;-1.58;100.00;102725.41;5068778;28;20048;-70
2022/12/19 05:42:37;;;;;;;101.50;41.00;;;;;;;-1.44;100.00;102768.38;5069431;28;20030;-69
2022/12/19 05:45:03;;;;;;;95.95;39.85;;;;;;;-1.43;100.00;102759.59;5069162;28;20046;-70
2022/12/19 05:47:28;;;;;;;101.88;39.00;;;;;;;-1.46;100.00;102763.09;5059695;28;20136;-69
2022/12/19 05:49:54;;;;;;;91.65;35.80;;;;;;;-1.51;100.00;102754.34;5069254;28;20031;-70
2022/12/19 05:52:19;;;;;;;104.53;40.83;;;;;;;-1.47;100.00;102755.22;5069138;28;20097;-70
2022/12/19 05:54:44;;;;;;;98.78;40.38;;;;;;;-1.65;100.00;102732.41;5068718;28;20099;-70
2022/12/19 05:57:10;;;;;;;104.60;38.63;;;;;;;-1.45;100.00;102764.00;5068354;28;20049;-70
2022/12/19 05:59:36;;;;;;;110.95;41.60;;;;;;;-1.68;100.00;102721.00;5069161;28;20060;-70
2022/12/19 06:02:01;;;;;;;101.20;40.15;;;;;;;-1.57;100.00;102724.50;5069181;28;20020;-70
2022/12/19 06:04:28;;;;;;;100.63;39.13;;;;;;;-1.67;100.00;102709.59;5068694;28;20086;-70
2022/12/19 06:06:54;;;;;;;100.32;38.83;;;;;;;-1.43;100.00;102751.69;5068613;28;20042;-70
2022/12/19 06:09:19;;;;;;;95.00;37.08;;;;;;;-1.45;100.00;102748.19;5067520;28;20024;-70
2022/12/19 06:11:45;;;;;;;87.90;34.35;;;;;;;-1.58;100.00;102739.41;5067106;28;20070;-70
2022/12/19 06:14:10;;;;;;;83.30;33.20;;;;;;;-1.46;99.95;102771.00;5069590;28;20032;-70
2022/12/19 06:16:36;;;;;;;86.97;36.25;;;;;;;-1.58;99.64;102752.56;5069850;28;20017;-69
2022/12/19 06:19:01;;;;;;;87.32;33.60;;;;;;;-1.50;98.83;102758.72;5070616;28;20016;-74
2022/12/19 06:21:26;;;;;;;79.22;33.38;;;;;;;-1.45;97.31;102764.84;5070494;28;20059;-73
2022/12/19 06:23:53;;;;;;;88.50;32.15;;;;;;;-1.50;97.07;102763.09;5070543;28;20029;-73
2022/12/19 06:26:20;;;;;;;82.40;32.63;;;;;;;-1.66;97.03;102737.66;5070634;28;20520;-73
2022/12/19 06:28:47;;;;;;;78.03;31.55;;;;;;;-1.50;96.15;102760.47;5066230;28;20025;-74
2022/12/19 06:31:13;;;;;;;77.97;30.02;;;;;;;-1.52;95.45;102767.50;5069999;28;20416;-72
2022/12/19 06:33:39;;;;;;;74.15;30.92;;;;;;;-1.68;95.43;102753.44;5068399;28;20546;-72
2022/12/19 06:36:06;;;;;;;83.28;32.75;;;;;;;-1.55;95.61;102773.63;5069817;28;20272;-72
2022/12/19 06:38:33;;;;;;;80.63;31.10;;;;;;;-1.58;95.09;102763.09;5068928;28;20528;-69
2022/12/19 06:43:43;;;;;;;84.13;30.73;;;;;;;-1.64;94.04;102783.28;5069408;28;20419;-69
2022/12/19 06:46:09;;;;;;;75.13;30.25;;;;;;;-1.87;93.52;102727.13;5069228;28;20024;-69
2022/12/19 06:48:35;;;;;;;83.15;32.92;;;;;;;-1.60;93.26;102772.75;5068590;28;20052;-69
2022/12/19 06:51:00;;;;;;;76.43;32.03;;;;;;;-1.70;93.17;102749.06;5068689;28;20110;-70
2022/12/19 06:53:26;;;;;;;82.60;31.48;;;;;;;-1.55;92.96;102772.75;5068827;28;20032;-70
2022/12/19 06:55:55;;;;;;;80.45;31.50;;;;;;;-1.64;92.71;102762.22;5068276;28;20032;-69
2022/12/19 06:58:20;;;;;;;70.03;29.52;;;;;;;-1.54;92.51;102771.88;5067099;28;20560;-70
2022/12/19 07:00:46;;;;;;;65.78;28.13;;;;;;;-1.65;91.25;102753.44;5067636;28;20111;-70
2022/12/19 07:03:17;;;;;;;70.75;26.88;;;;;;;-1.65;90.72;102760.47;5069135;28;20064;-70
2022/12/19 07:05:43;;;;;;;68.05;27.50;;;;;;;-1.56;90.98;102766.59;5062488;28;20110;-70
2022/12/19 07:08:08;;;;;;;66.65;27.50;;;;;;;-1.53;90.67;102763.09;5067083;28;20509;-70
2022/12/19 07:10:34;;;;;;;59.50;25.73;;;;;;;-1.60;90.64;102754.34;5065323;28;20033;-69
2022/12/19 07:12:59;;;;;;;64.47;26.67;;;;;;;-1.55;89.26;102759.59;5067300;28;20044;-69
2022/12/19 07:15:25;;;;;;;59.35;24.73;;;;;;;-1.52;89.06;102765.72;5067594;28;20496;-71
2022/12/19 07:17:51;;;;;;;57.10;25.50;;;;;;;-1.44;88.17;102771.00;5070743;28;20029;-70
2022/12/19 07:20:19;;;;;;;56.67;24.10;;;;;;;-1.47;88.57;102771.88;5071636;28;20023;-70
2022/12/19 07:22:46;;;;;;;55.90;25.27;;;;;;;-1.45;88.17;102770.09;5071664;28;20033;-70
2022/12/19 07:25:11;;;;;;;59.83;23.83;;;;;;;-1.46;87.81;102778.00;5070279;28;20028;-70
2022/12/19 07:27:37;;;;;;;59.08;23.98;;;;;;;-1.54;87.59;102754.34;5071741;28;20055;-74
2022/12/19 07:30:04;;;;;;;52.28;22.35;;;;;;;-1.44;87.11;102769.25;5072342;28;20151;-73
2022/12/19 07:32:30;;;;;;;50.05;21.85;;;;;;;-1.46;86.33;102751.69;5071633;28;20035;-73
2022/12/19 07:34:55;;;;;;;51.22;22.83;;;;;;;-1.32;86.73;102766.59;5072194;28;20028;-73
2022/12/19 07:37:21;;;;;;;54.35;23.60;;;;;;;-1.43;87.02;102751.69;5070420;28;20035;-73
2022/12/19 07:39:47;;;;;;;54.85;22.77;;;;;;;-1.43;86.81;102752.59;5071609;28;20429;-73
2022/12/19 07:42:12;;;;;;;58.67;22.67;;;;;;;-1.58;86.44;102725.41;5070373;28;20024;-73
2022/12/19 07:44:38;;;;;;;58.70;23.98;;;;;;;-1.40;87.25;102760.47;5071635;28;20031;-73
2022/12/19 07:47:04;;;;;;;58.95;24.67;;;;;;;-1.37;87.27;102772.75;5071926;28;20441;-73
2022/12/19 07:49:29;;;;;;;56.13;23.65;;;;;;;-1.34;87.64;102764.84;5072263;28;20099;-73
2022/12/19 07:51:55;;;;;;;58.25;24.67;;;;;;;-1.41;87.76;102763.09;5073093;28;20115;-73
2022/12/19 07:54:20;;;;;;;52.88;22.77;;;;;;;-1.29;87.43;102773.66;5072485;28;20035;-74
2022/12/19 07:56:46;;;;;;;50.35;21.88;;;;;;;-1.35;87.48;102768.38;5072451;28;20453;-73
2022/12/19 07:59:11;;;;;;;59.22;24.40;;;;;;;-1.26;88.04;102771.00;5071211;28;20021;-74
2022/12/19 08:01:37;;;;;;;57.95;23.35;;;;;;;-1.35;88.37;102760.47;5071116;28;20028;-74
2022/12/19 08:04:03;;;;;;;52.70;22.55;;;;;;;-1.24;88.88;102771.88;5071348;28;20373;-73
2022/12/19 08:06:28;;;;;;;53.42;24.38;;;;;;;-1.36;89.56;102741.16;5070948;28;20028;-74
2022/12/19 08:08:54;;;;;;;55.72;24.80;;;;;;;-1.21;89.16;102761.34;5072524;28;20036;-74
2022/12/19 08:11:29;;;;;;;60.97;24.67;;;;;;;-1.15;88.92;102775.38;5072297;28;20028;-74
2022/12/19 08:13:56;;;;;;;52.22;24.33;;;;;;;-1.13;89.25;102778.88;5072551;28;20374;-73
2022/12/19 08:16:24;;;;;;;59.35;24.45;;;;;;;-1.11;89.23;102761.34;5070888;28;20473;-73
2022/12/19 08:18:49;;;;;;;56.35;24.77;;;;;;;-1.07;89.50;102757.81;5072413;28;20024;-73
2022/12/19 08:21:15;;;;;;;57.60;26.02;;;;;;;-1.21;89.35;102737.66;5072010;28;20178;-73
2022/12/19 08:23:40;;;;;;;62.80;25.58;;;;;;;-0.98;89.39;102759.53;5072310;28;20055;-73
2022/12/19 08:26:10;;;;;;;69.07;27.20;;;;;;;-0.96;89.71;102756.06;5072042;28;20044;-73
2022/12/19 08:28:36;;;;;;;66.40;26.60;;;;;;;-0.93;90.26;102756.00;5070891;28;20031;-73
2022/12/19 08:31:10;;;;;;;63.42;27.50;;;;;;;-0.83;90.56;102768.31;5071684;28;20108;-73
2022/12/19 08:33:36;;;;;;;61.30;26.52;;;;;;;-0.81;90.52;102763.03;5070236;28;20119;-74
2022/12/19 08:36:06;;;;;;;54.30;23.90;;;;;;;-0.80;90.34;102759.53;5072205;28;20085;-73
2022/12/19 08:38:32;;;;;;;56.22;25.40;;;;;;;-0.67;90.24;102784.97;5070549;28;20037;-73
2022/12/19 08:40:58;;;;;;;67.18;27.55;;;;;;;-0.66;89.92;102776.16;5071619;28;20131;-73
2022/12/19 08:43:25;;;;;;;64.78;26.02;;;;;;;-0.59;88.54;102767.34;5071947;28;20381;-73
2022/12/19 08:45:50;;;;;;;61.28;25.00;;;;;;;-0.57;88.58;102762.97;5071852;28;20024;-73
2022/12/19 08:48:16;;;;;;;65.43;26.67;;;;;;;-0.63;88.60;102755.06;5071705;28;20077;-74
2022/12/19 08:50:59;;;;;;;58.22;24.88;;;;;;;-0.55;88.74;102772.59;5071641;28;20031;-72
2022/12/19 08:53:27;;;;;;;58.70;25.45;;;;;;;-0.56;88.42;102754.16;5070066;28;20109;-73
2022/12/19 08:55:57;;;;;;;64.93;27.15;;;;;;;-0.46;88.42;102758.50;5071630;28;21080;-73
2022/12/19 08:58:27;;;;;;;66.13;26.30;;;;;;;-0.47;87.55;102767.31;5071345;28;20021;-74
2022/12/19 09:00:52;;;;;;;69.55;27.42;;;;;;;-0.49;88.31;102755.88;5071670;28;20480;-73
2022/12/19 09:03:21;;;;;;;64.80;28.20;;;;;;;-0.41;88.36;102756.75;5071399;28;20027;-73
2022/12/19 09:05:57;;;;;;;66.22;27.95;;;;;;;-0.36;88.37;102765.50;5071686;28;20423;-72
2022/12/19 09:08:23;;;;;;;66.82;28.27;;;;;;;-0.25;87.54;102763.72;5071062;28;20473;-73
2022/12/19 09:10:48;;;;;;;67.85;28.48;;;;;;;-0.29;88.39;102754.06;5069862;28;20401;-72
2022/12/19 09:13:14;;;;;;;72.88;29.40;;;;;;;-0.27;88.80;102753.16;5071071;28;20028;-72
2022/12/19 09:15:39;;;;;;;68.07;27.70;;;;;;;-0.27;87.97;102741.75;5069856;28;20031;-72
2022/12/19 09:18:05;;;;;;;62.17;27.90;;;;;;;-0.14;87.95;102756.59;5071246;28;20106;-73
2022/12/19 09:20:30;;;;;;;64.03;27.13;;;;;;;-0.38;88.19;102710.16;5071105;28;20095;-72
2022/12/19 09:22:56;;;;;;;63.67;26.65;;;;;;;-0.14;88.28;102740.78;5069757;28;20135;-72
2022/12/19 09:25:21;;;;;;;64.45;28.27;;;;;;;-0.11;88.05;102746.03;5069511;28;20020;-72
2022/12/19 09:27:47;;;;;;;66.97;28.38;;;;;;;-0.06;87.81;102737.22;5070889;28;20033;-72
2022/12/19 09:30:13;;;;;;;76.13;32.17;;;;;;;-0.02;88.32;102720.50;5070745;28;20077;-73
2022/12/19 09:32:38;;;;;;;67.47;29.27;;;;;;;-0.01;88.34;102713.44;5069782;28;20507;-72
2022/12/19 09:35:04;;;;;;;69.15;29.52;;;;;;;0.03;88.59;102717.81;5070945;28;20401;-73
2022/12/19 09:37:30;;;;;;;62.38;27.80;;;;;;;0.18;87.83;102724.75;5069266;28;20378;-73
2022/12/19 09:39:55;;;;;;;62.95;28.55;;;;;;;0.19;87.11;102727.38;5068519;28;20105;-73
2022/12/19 09:42:23;;;;;;;69.30;28.60;;;;;;;0.21;87.35;102717.69;5070746;28;20392;-73
2022/12/19 09:45:01;;;;;;;62.83;26.67;;;;;;;0.29;87.17;102705.31;5069623;28;20633;-73
2022/12/19 09:47:31;;;;;;;66.40;29.48;;;;;;;0.16;87.22;102693.09;5069196;28;20423;-73
2022/12/19 09:50:00;;;;;;;64.15;27.63;;;;;;;0.25;87.11;102700.09;5070656;28;20021;-73
2022/12/19 09:52:29;;;;;;;63.45;29.95;;;;;;;0.35;86.87;102697.34;5070475;28;20024;-73
2022/12/19 09:55:21;;;;;;;69.78;30.13;;;;;;;0.39;87.30;102699.09;5068994;28;20035;-74
2022/12/19 09:58:11;;;;;;;63.78;28.60;;;;;;;0.36;87.93;102688.56;5050518;28;20059;-71
2022/12/19 10:00:43;;;;;;;69.68;28.75;;;;;;;0.42;87.36;102685.00;5050601;28;20120;-73
2022/12/19 10:03:27;;;;;;;65.15;28.40;;;;;;;0.34;86.87;102663.94;5051082;28;20454;-73
2022/12/19 10:05:58;;;;;;;68.13;28.73;;;;;;;0.48;87.45;102684.94;5050624;28;20024;-72
2022/12/19 10:08:32;;;;;;;67.38;28.35;;;;;;;0.46;87.61;102677.03;5048867;28;20071;-73
2022/12/19 10:11:04;;;;;;;66.57;28.88;;;;;;;0.55;87.89;102690.13;5050374;28;20058;-73
2022/12/19 10:13:33;;;;;;;63.58;27.40;;;;;;;0.67;85.78;102676.81;5050229;28;20074;-73
2022/12/19 10:16:24;;;;;;;64.72;27.98;;;;;;;0.76;85.29;102692.59;5050178;28;20433;-73
2022/12/19 10:18:53;;;;;;;57.63;26.35;;;;;;;0.80;84.90;102694.28;5050515;28;20025;-73
2022/12/19 10:21:37;;;;;;;54.08;25.73;;;;;;;0.90;84.56;102673.97;5050556;28;20044;-73
2022/12/19 10:24:14;;;;;;;59.45;27.58;;;;;;;0.88;84.97;102681.91;5050303;28;20119;-73
2022/12/19 10:26:48;;;;;;;62.58;26.60;;;;;;;0.89;84.78;102678.34;5050390;28;20078;-73
2022/12/19 10:29:41;;;;;;;56.30;24.55;;;;;;;0.94;85.23;102666.00;5050349;28;20115;-73
2022/12/19 10:32:26;;;;;;;57.70;26.27;;;;;;;1.01;84.85;102657.09;5050153;28;20025;-73
2022/12/19 10:34:52;;;;;;;56.80;25.70;;;;;;;0.98;84.10;102640.41;5050298;28;20028;-72
2022/12/19 10:37:25;;;;;;;56.75;25.88;;;;;;;1.15;84.33;102660.44;5050215;28;20114;-72
2022/12/19 10:40:12;;;;;;;65.82;26.70;;;;;;;1.22;84.47;102659.47;5048998;28;20045;-72
2022/12/19 10:42:56;;;;;;;58.50;25.90;;;;;;;1.21;83.92;102644.50;5050069;28;20393;-73
2022/12/19 10:45:23;;;;;;;66.88;26.40;;;;;;;1.27;82.66;102643.56;5048559;28;20094;-73
2022/12/19 10:47:54;;;;;;;63.47;27.98;;;;;;;1.14;82.66;102641.97;5050184;28;20025;-71
2022/12/19 10:50:23;;;;;;;58.45;27.23;;;;;;;1.26;82.84;102658.53;5048897;28;20498;-72
2022/12/19 10:53:07;;;;;;;56.85;26.80;;;;;;;1.26;82.48;102653.25;5053572;28;20039;-72
2022/12/19 10:55:41;;;;;;;59.08;25.35;;;;;;;1.34;82.42;102663.72;5053900;28;20083;-73
2022/12/19 10:58:20;;;;;;;51.60;25.33;;;;;;;1.32;81.97;102639.94;5052404;28;20033;-72
2022/12/19 11:01:20;;;;;;;56.78;25.45;;;;;;;1.39;82.37;102661.91;5053707;28;20028;-72
2022/12/19 11:03:51;;;;;;;62.38;26.98;;;;;;;1.29;82.84;102644.44;5047758;28;20036;-72
2022/12/19 11:06:36;;;;;;;56.58;26.20;;;;;;;1.48;82.90;102670.59;5053488;28;20028;-73
2022/12/19 11:09:22;;;;;;;57.97;26.17;;;;;;;1.49;82.36;102671.47;5052159;28;20037;-73
2022/12/19 11:11:56;;;;;;;57.72;26.23;;;;;;;1.61;81.66;102669.53;5053412;28;20029;-74
2022/12/19 11:14:24;;;;;;;59.65;25.58;;;;;;;1.55;81.83;102666.97;5053335;28;20112;-73
2022/12/19 11:16:49;;;;;;;55.63;25.95;;;;;;;1.54;81.94;102654.63;5052014;28;20037;-73
2022/12/19 11:19:36;;;;;;;52.85;26.00;;;;;;;1.68;82.10;102663.25;5053265;28;20028;-73